TAF KDBQ
AMD KDBQ 090802Z 0908/1006 14013G19KT P6SM OVC100 WS015/17040KT FM091300 14013KT P6SM OVC070 WS014/17040KT FM091800 18009KT P6SM OVC035 FM092100 22007KT P6SM SCT050=
METAR KDBQ
WC KDBQ
WS KDBQ
WV KDBQ